Asan, Guam
Current Conditions -  °F | °C
As of 10:54 AM on Sunday 21 Dec 2014 (Local Time) from PGUM Reporting Station
Few Clouds Few Clouds  
Wind Chill: 88°   Ceiling: Unl
Heat Index: 97°   Visibility: 10mi
Dew Point: 74°   Wind: 21mph
Humidity: 63%   Direction: 90°E
Pressure: 29.91"   Gusts: 31mph
Location:  13.47°N, 144.71°E
Report Text: PGUM 210054Z 09018G27KT 10SM FEW024 31/23 A2991 RMK AO2 PK WND 08028/0016 SLP117 T03110233
Loading
Personal Weather Stations






























Interactive Weather Map New forecast layout! Learn more

10-Day Weather Forecast

Advertisements
Track Severe Weather on mobile